Airfield :
LOGIN :

Register | Disclaimer

   EN    FR    IT 

 










Legend :    VFR   Marginal VFR   IFR   Intensive IFR   Very Intensive IFR
Visi :
Ceiling :
>= 8 km
>= 3000ft
5 to 8 km
1000 to 3000 ft
1500m to 5 km
500 to 1000 ft
800 to 1500m
200 to 500 ft
< 800m
< 200 ft
Symbols :   Thunderstorms  Fog  Heavy snow  Heavy precipitations  Wind > 20 kt
SIGMETs :     Misc.  Thunderstorms  Icing  Turbulence  Mountain Waves  Volcanic Ashes







- Airport Elevation : 226 ft
- IATA code : BEX


EGUB - RAF Benson

CURRENT METAR :
  • 141650Z 16008KT CAVOK 10/07 Q1020 BLU NOSIG

EXPIRED METARs :
  • 141550Z 16008KT 9999 FEW030 BKN250 12/08 Q1020 BLU NOSIG
  • 141450Z 17009KT CAVOK 14/08 Q1020 BLU NOSIG

TAF TAF EGUB
Valid from the 14 at 15:00 until the 15 at 00:00 UTC


141340Z 1415/1424 17008KT 9999 FEW024
BECMG 1419/1421 BKN010
PROB30
TEMPO 1421/1424 SCT006
ATIS : +44 1491-837766 (x7524)
No reported NOTAMs for that airfield.
1 SIGMET reported for the London FIR (EGTT) :
 
Severe mountain waves
EGTT SIGMET 05 VALID 141600/141930 EGRR
EGTT LONDON FIR SEV MTW FCST WI N5220 W00530 - N5500 W00530 - N5500 W00100 - N5500 E00132 - N5141 W00228 - N5201 W00606 - N5220 W00530 FL020/320 STNR NC=



MET'MAP, your aeronautical weather chart ! - Copyright ORBIFLY December 2007 - Disclaimer

ORBIFLY MET'MAP TEAM :

Programming & Development : Alexandra Zaïnal
Concept & Development : Baudouin d'Aumeries
Co-Development & Prog : Marc-Olivier Méhu
Technical & hardware support : Manuel Goepfert

Contact : metmap@orbifly.com




SOURCES & CREDITS :

   NOAA